Loading...

Airport Miami International Airport(KMIA)



ICAO KMIA
Land United States
Position 25° 47.592 N -80° 17.436 W
Höhe 8 ft über NN

Pisten Länge(ft) Länge(m) HDG
08R 10506ft 34459m 87
26L 10506ft 34459m 267
08L 8600ft 28208m 87
26R 8600ft 28208m 267
09 13000ft 42640m 87
27 13000ft 42640m 267
12 9354ft 30681m 119
30 9354ft 30681m 299

METAR

2022/05/21 05:53 KMIA 210553Z 11015G19KT 10SM SCT016 SCT023 28/26 A3010 RMK AO2 SLP193 T02780256 10278 20261 56010 $

TAF(Forecast)

2022/05/21 06:24 TAF KMIA 210522Z 2106/2212 11011KT P6SM FEW015 SCT025 BKN050 TEMPO 2106/2109 BKN015 FM211400 12012KT P6SM SCT030 SCT050 BKN120 FM211700 13015G25KT P6SM SCT030 SCT060 BKN250 FM220100 10010KT P6SM FEW030 SCT060 BKN250